Cacilhas — VRUA8 — position and weather

sailwx.info

Track history (hours):
 
Tides and Currents Weather Stations Pressure Air Temp Water Temp Dewpoint Dewpoint Depression Visibility Wind Speed Wind Dir Waves Ship Positions

Cacilhas

Last reported at 2016-Aug-28 18:07 UTC. Time now 2016-Aug-28 20:36 UTC.
Position N 22°12' E 113°48'.

Length 29 m.

Type: Ship (hazmat cat D). MMSI: 477092000.

Date/timePositionNaut miles runAvg speedWind from/ knotsBaromVisibWave heightAir tempDewpointWater temp
2016-Aug-28 18:07N 22°12' E 113°48'2035.9
2016-Aug-28 17:33N 22°17' E 114°09'0 0.0
2016-Aug-28 13:23N 22°17' E 114°09'2023.0
2016-Aug-28 12:31N 22°11' E 113°49'2010.1
2016-Aug-28 10:32N 22°17' E 114°09'20 8.7
2016-Aug-28 08:11N 22°12' E 113°48'2032.4
2016-Aug-28 07:33N 22°17' E 114°09'2019.8
2016-Aug-28 06:32N 22°11' E 113°49'19 8.3
2016-Aug-28 04:14N 22°18' E 114°08'1 1.2
2016-Aug-28 03:33N 22°17' E 114°09'1 0.4
2016-Aug-28 01:17N 22°18' E 114°08'1 1.4
2016-Aug-28 00:33N 22°17' E 114°09'0 0.0
2016-Aug-27 23:33N 22°17' E 114°09'0 0.0
2016-Aug-27 22:33N 22°17' E 114°09'0 0.0
2016-Aug-27 21:33N 22°17' E 114°09'0 0.0
2016-Aug-27 20:32N 22°17' E 114°09'0 0.0
2016-Aug-27 19:33N 22°17' E 114°09'0 0.0
2016-Aug-27 18:33N 22°17' E 114°09'0 0.0
2016-Aug-27 17:33N 22°17' E 114°09'0 0.0
2016-Aug-27 16:33N 22°17' E 114°09'0 0.0
2016-Aug-27 15:33N 22°17' E 114°09'0 0.0
2016-Aug-27 14:32N 22°17' E 114°09'0 0.0
2016-Aug-27 13:33N 22°17' E 114°09'0 0.0
2016-Aug-27 12:33N 22°17' E 114°09'0 0.0
2016-Aug-27 11:32N 22°17' E 114°09'0 0.0
2016-Aug-27 10:33N 22°17' E 114°09'2014.9
2016-Aug-27 09:13N 22°11' E 113°49'20 4.2
2016-Aug-27 04:33N 22°17' E 114°09'1 0.5
2016-Aug-27 02:14N 22°18' E 114°08'1 2.1
2016-Aug-27 01:33N 22°17' E 114°09'18 8.9
2016-Aug-26 23:33N 22°11' E 113°51'1817.4
2016-Aug-26 22:32N 22°17' E 114°09'0 0.0
2016-Aug-26 21:33N 22°17' E 114°09'0 0.0
2016-Aug-26 20:33N 22°17' E 114°09'0 0.0
2016-Aug-26 19:34N 22°17' E 114°09'0 0.0
2016-Aug-26 18:29N 22°17' E 114°09'2019.7
2016-Aug-26 17:29N 22°11' E 113°49'20 8.5
2016-Aug-26 15:07N 22°17' E 114°09'0 0.0
2016-Aug-26 14:33N 22°17' E 114°09'2 0.8
2016-Aug-26 12:13N 22°17' E 114°07'2 2.9
2016-Aug-26 11:34N 22°17' E 114°09'1 0.4
2016-Aug-26 09:12N 22°18' E 114°08'1 1.7
2016-Aug-26 08:33N 22°17' E 114°09'1 0.5
2016-Aug-26 06:14N 22°18' E 114°08'1911.6
2016-Aug-26 04:33N 22°11' E 113°48'2010.1
2016-Aug-26 02:33N 22°17' E 114°09'20 8.4
2016-Aug-26 00:10N 22°12' E 113°48'2031.7
2016-Aug-25 23:32N 22°17' E 114°09'2018.5
2016-Aug-25 22:27N 22°11' E 113°49'19 8.5
2016-Aug-25 20:13N 22°18' E 114°08'1 1.7
2016-Aug-25 19:33N 22°17' E 114°09'0 0.0
2016-Aug-25 15:33N 22°17' E 114°09'0 0.5
2016-Aug-25 14:33N 22°18' E 114°09'20 4.8
2016-Aug-25 10:24N 22°12' E 113°48'2016.9
2016-Aug-25 09:12N 22°17' E 114°09'0 0.0
2016-Aug-25 06:32N 22°17' E 114°09'1 0.1
2016-Aug-24 16:11N 22°18' E 114°08'1 1.5
2016-Aug-24 15:33N 22°17' E 114°09'1 0.3
2016-Aug-24 12:13N 22°18' E 114°08'1 1.7
2016-Aug-24 11:32N 22°17' E 114°09'1 0.5
2016-Aug-24 09:11N 22°18' E 114°08'1 1.9
2016-Aug-24 08:34N 22°17' E 114°09'1 0.6
2016-Aug-24 06:09N 22°18' E 114°08'2112.3
2016-Aug-24 04:27N 22°11' E 113°46'2211.8
2016-Aug-24 02:33N 22°17' E 114°09'2017.9
2016-Aug-24 01:27N 22°11' E 113°49'2010.2
2016-Aug-23 23:29N 22°17' E 114°09'2019.2
2016-Aug-23 22:27N 22°11' E 113°49'19 8.2
2016-Aug-23 20:10N 22°17' E 114°08'1 2.0
2016-Aug-23 19:33N 22°17' E 114°09'2 0.7
2016-Aug-23 17:10N 22°18' E 114°07'2 2.6
2016-Aug-23 16:32N 22°17' E 114°09'20 2.7
2016-Aug-23 09:09N 22°12' E 113°48'2033.5
2016-Aug-23 08:33N 22°17' E 114°09'2019.0
2016-Aug-23 07:31N 22°11' E 113°49'20 6.7
2016-Aug-23 04:33N 22°17' E 114°09'1 0.5
2016-Aug-23 02:11N 22°18' E 114°08'1 1.3
2016-Aug-23 01:33N 22°17' E 114°09'1 0.3
2016-Aug-22 23:09N 22°18' E 114°08'1 1.6
2016-Aug-22 22:32N 22°17' E 114°09'0 0.0
2016-Aug-22 21:33N 22°17' E 114°09'0 0.0
2016-Aug-22 20:33N 22°17' E 114°09'0 0.0
2016-Aug-22 18:33N 22°17' E 114°09'1 0.6
2016-Aug-22 16:11N 22°18' E 114°08'1 1.9
2016-Aug-22 15:33N 22°17' E 114°09'0 0.0
2016-Aug-22 11:33N 22°17' E 114°09'0 0.1
2016-Aug-22 08:33N 22°17' E 114°09'2019.6
2016-Aug-22 07:32N 22°11' E 113°49'1 0.1
2016-Aug-21 16:09N 22°12' E 113°48'2033.4
2016-Aug-21 15:32N 22°17' E 114°09'0 0.3
2016-Aug-21 14:33N 22°17' E 114°09'1 0.3
2016-Aug-21 12:16N 22°18' E 114°08'1917.1
2016-Aug-21 11:08N 22°11' E 113°49'19 9.6
2016-Aug-21 09:09N 22°18' E 114°08'1 1.8
2016-Aug-21 08:32N 22°17' E 114°09'1 0.5
2016-Aug-21 06:12N 22°18' E 114°08'1 1.7
2016-Aug-21 05:33N 22°17' E 114°09'2018.4
2016-Aug-21 04:29N 22°11' E 113°49'1 0.9
2016-Aug-21 03:10N 22°12' E 113°48'2033.4
2016-Aug-21 02:33N 22°17' E 114°09'2018.4
2016-Aug-21 01:29N 22°11' E 113°49'1 0.7
2016-Aug-21 00:12N 22°12' E 113°48'2031.9
2016-Aug-20 23:33N 22°17' E 114°09'2221.8
2016-Aug-20 22:33N 22°11' E 113°47'21 8.7
2016-Aug-20 20:11N 22°18' E 114°08'1 1.8
2016-Aug-20 19:34N 22°17' E 114°09'20 5.9
2016-Aug-20 16:09N 22°12' E 113°48'2012.6
2016-Aug-20 14:33N 22°17' E 114°09'20 3.8
2016-Aug-20 09:11N 22°12' E 113°48'2031.8
2016-Aug-20 08:33N 22°17' E 114°09'1918.8
2016-Aug-20 07:31N 22°11' E 113°49'1 0.3
2016-Aug-20 02:11N 22°12' E 113°48'2032.1
2016-Aug-20 01:33N 22°17' E 114°09'0 0.0
2016-Aug-20 00:33N 22°17' E 114°09'0 0.1
2016-Aug-19 23:33N 22°17' E 114°09'0 0.0
2016-Aug-19 22:33N 22°17' E 114°09'0 0.1
2016-Aug-19 21:33N 22°17' E 114°09'0 0.0
2016-Aug-19 20:33N 22°17' E 114°09'0 0.0
2016-Aug-19 19:33N 22°17' E 114°09'0 0.0
2016-Aug-19 18:32N 22°17' E 114°09'0 0.0
2016-Aug-19 17:33N 22°17' E 114°09'0 0.0
2016-Aug-19 16:30N 22°17' E 114°09'0 0.0
2016-Aug-19 15:33N 22°17' E 114°09'0 0.0
2016-Aug-19 14:32N 22°17' E 114°09'0 0.0
2016-Aug-19 13:32N 22°17' E 114°09'0 0.1
2016-Aug-19 12:31N 22°17' E 114°09'0 0.0
2016-Aug-19 11:33N 22°17' E 114°09'0 0.0
2016-Aug-19 10:33N 22°17' E 114°09'0 0.0
2016-Aug-19 09:32N 22°17' E 114°09'0 0.0
2016-Aug-19 08:33N 22°17' E 114°09'0 0.0
2016-Aug-19 07:32N 22°17' E 114°09'0 0.0
2016-Aug-19 06:33N 22°17' E 114°09'0 0.0
2016-Aug-19 05:32N 22°17' E 114°09'0 0.0
2016-Aug-19 04:33N 22°17' E 114°09'0 0.0
2016-Aug-19 03:33N 22°17' E 114°09'0 0.0
2016-Aug-19 02:33N 22°17' E 114°09'0 0.1
2016-Aug-19 01:33N 22°17' E 114°09'0 0.1
2016-Aug-19 00:33N 22°17' E 114°09'0 0.0
2016-Aug-18 23:33N 22°17' E 114°09'0 0.1
2016-Aug-18 22:33N 22°17' E 114°09'0 0.1
2016-Aug-18 21:33N 22°17' E 114°09'0 0.0
2016-Aug-18 20:34N 22°17' E 114°09'0 0.0
2016-Aug-18 19:33N 22°17' E 114°09'0 0.0
2016-Aug-18 18:33N 22°17' E 114°09'  
Track history (hours):
 
Tides and Currents Weather Stations Pressure Air Temp Water Temp Dewpoint Dewpoint Depression Visibility Wind Speed Wind Dir Waves Ship Positions

Cacilhas

Last reported at 2016-Aug-28 18:07 UTC. Time now 2016-Aug-28 20:36 UTC.
Position N 22°12' E 113°48'.

Length 29 m.

Type: Ship (hazmat cat D). MMSI: 477092000.

Date/timePositionNaut miles runAvg speedWind from/ knotsBaromVisibWave heightAir tempDewpointWater temp
2016-Aug-28 18:07N 22°12' E 113°48'2035.9
2016-Aug-28 17:33N 22°17' E 114°09'0 0.0
2016-Aug-28 13:23N 22°17' E 114°09'2023.0
2016-Aug-28 12:31N 22°11' E 113°49'2010.1
2016-Aug-28 10:32N 22°17' E 114°09'20 8.7
2016-Aug-28 08:11N 22°12' E 113°48'2032.4
2016-Aug-28 07:33N 22°17' E 114°09'2019.8
2016-Aug-28 06:32N 22°11' E 113°49'19 8.3
2016-Aug-28 04:14N 22°18' E 114°08'1 1.2
2016-Aug-28 03:33N 22°17' E 114°09'1 0.4
2016-Aug-28 01:17N 22°18' E 114°08'1 1.4
2016-Aug-28 00:33N 22°17' E 114°09'0 0.0
2016-Aug-27 23:33N 22°17' E 114°09'0 0.0
2016-Aug-27 22:33N 22°17' E 114°09'0 0.0
2016-Aug-27 21:33N 22°17' E 114°09'0 0.0
2016-Aug-27 20:32N 22°17' E 114°09'0 0.0
2016-Aug-27 19:33N 22°17' E 114°09'0 0.0
2016-Aug-27 18:33N 22°17' E 114°09'0 0.0
2016-Aug-27 17:33N 22°17' E 114°09'0 0.0
2016-Aug-27 16:33N 22°17' E 114°09'0 0.0
2016-Aug-27 15:33N 22°17' E 114°09'0 0.0
2016-Aug-27 14:32N 22°17' E 114°09'0 0.0
2016-Aug-27 13:33N 22°17' E 114°09'0 0.0
2016-Aug-27 12:33N 22°17' E 114°09'0 0.0
2016-Aug-27 11:32N 22°17' E 114°09'0 0.0
2016-Aug-27 10:33N 22°17' E 114°09'2014.9
2016-Aug-27 09:13N 22°11' E 113°49'20 4.2
2016-Aug-27 04:33N 22°17' E 114°09'1 0.5
2016-Aug-27 02:14N 22°18' E 114°08'1 2.1
2016-Aug-27 01:33N 22°17' E 114°09'18 8.9
2016-Aug-26 23:33N 22°11' E 113°51'1817.4
2016-Aug-26 22:32N 22°17' E 114°09'0 0.0
2016-Aug-26 21:33N 22°17' E 114°09'0 0.0
2016-Aug-26 20:33N 22°17' E 114°09'0 0.0
2016-Aug-26 19:34N 22°17' E 114°09'0 0.0
2016-Aug-26 18:29N 22°17' E 114°09'2019.7
2016-Aug-26 17:29N 22°11' E 113°49'20 8.5
2016-Aug-26 15:07N 22°17' E 114°09'0 0.0
2016-Aug-26 14:33N 22°17' E 114°09'2 0.8
2016-Aug-26 12:13N 22°17' E 114°07'2 2.9
2016-Aug-26 11:34N 22°17' E 114°09'1 0.4
2016-Aug-26 09:12N 22°18' E 114°08'1 1.7
2016-Aug-26 08:33N 22°17' E 114°09'1 0.5
2016-Aug-26 06:14N 22°18' E 114°08'1911.6
2016-Aug-26 04:33N 22°11' E 113°48'2010.1
2016-Aug-26 02:33N 22°17' E 114°09'20 8.4
2016-Aug-26 00:10N 22°12' E 113°48'2031.7
2016-Aug-25 23:32N 22°17' E 114°09'2018.5
2016-Aug-25 22:27N 22°11' E 113°49'19 8.5
2016-Aug-25 20:13N 22°18' E 114°08'1 1.7
2016-Aug-25 19:33N 22°17' E 114°09'0 0.0
2016-Aug-25 15:33N 22°17' E 114°09'0 0.5
2016-Aug-25 14:33N 22°18' E 114°09'20 4.8
2016-Aug-25 10:24N 22°12' E 113°48'2016.9
2016-Aug-25 09:12N 22°17' E 114°09'0 0.0
2016-Aug-25 06:32N 22°17' E 114°09'1 0.1
2016-Aug-24 16:11N 22°18' E 114°08'1 1.5
2016-Aug-24 15:33N 22°17' E 114°09'1 0.3
2016-Aug-24 12:13N 22°18' E 114°08'1 1.7
2016-Aug-24 11:32N 22°17' E 114°09'1 0.5
2016-Aug-24 09:11N 22°18' E 114°08'1 1.9
2016-Aug-24 08:34N 22°17' E 114°09'1 0.6
2016-Aug-24 06:09N 22°18' E 114°08'2112.3
2016-Aug-24 04:27N 22°11' E 113°46'2211.8
2016-Aug-24 02:33N 22°17' E 114°09'2017.9
2016-Aug-24 01:27N 22°11' E 113°49'2010.2
2016-Aug-23 23:29N 22°17' E 114°09'2019.2
2016-Aug-23 22:27N 22°11' E 113°49'19 8.2
2016-Aug-23 20:10N 22°17' E 114°08'1 2.0
2016-Aug-23 19:33N 22°17' E 114°09'2 0.7
2016-Aug-23 17:10N 22°18' E 114°07'2 2.6
2016-Aug-23 16:32N 22°17' E 114°09'20 2.7
2016-Aug-23 09:09N 22°12' E 113°48'2033.5
2016-Aug-23 08:33N 22°17' E 114°09'2019.0
2016-Aug-23 07:31N 22°11' E 113°49'20 6.7
2016-Aug-23 04:33N 22°17' E 114°09'1 0.5
2016-Aug-23 02:11N 22°18' E 114°08'1 1.3
2016-Aug-23 01:33N 22°17' E 114°09'1 0.3
2016-Aug-22 23:09N 22°18' E 114°08'1 1.6
2016-Aug-22 22:32N 22°17' E 114°09'0 0.0
2016-Aug-22 21:33N 22°17' E 114°09'0 0.0
2016-Aug-22 20:33N 22°17' E 114°09'0 0.0
2016-Aug-22 18:33N 22°17' E 114°09'1 0.6
2016-Aug-22 16:11N 22°18' E 114°08'1 1.9
2016-Aug-22 15:33N 22°17' E 114°09'0 0.0
2016-Aug-22 11:33N 22°17' E 114°09'0 0.1
2016-Aug-22 08:33N 22°17' E 114°09'2019.6
2016-Aug-22 07:32N 22°11' E 113°49'1 0.1
2016-Aug-21 16:09N 22°12' E 113°48'2033.4
2016-Aug-21 15:32N 22°17' E 114°09'0 0.3
2016-Aug-21 14:33N 22°17' E 114°09'1 0.3
2016-Aug-21 12:16N 22°18' E 114°08'1917.1
2016-Aug-21 11:08N 22°11' E 113°49'19 9.6
2016-Aug-21 09:09N 22°18' E 114°08'1 1.8
2016-Aug-21 08:32N 22°17' E 114°09'1 0.5
2016-Aug-21 06:12N 22°18' E 114°08'1 1.7
2016-Aug-21 05:33N 22°17' E 114°09'2018.4
2016-Aug-21 04:29N 22°11' E 113°49'1 0.9
2016-Aug-21 03:10N 22°12' E 113°48'2033.4
2016-Aug-21 02:33N 22°17' E 114°09'2018.4
2016-Aug-21 01:29N 22°11' E 113°49'1 0.7
2016-Aug-21 00:12N 22°12' E 113°48'2031.9
2016-Aug-20 23:33N 22°17' E 114°09'2221.8
2016-Aug-20 22:33N 22°11' E 113°47'21 8.7
2016-Aug-20 20:11N 22°18' E 114°08'1 1.8
2016-Aug-20 19:34N 22°17' E 114°09'20 5.9
2016-Aug-20 16:09N 22°12' E 113°48'2012.6
2016-Aug-20 14:33N 22°17' E 114°09'20 3.8
2016-Aug-20 09:11N 22°12' E 113°48'2031.8
2016-Aug-20 08:33N 22°17' E 114°09'1918.8
2016-Aug-20 07:31N 22°11' E 113°49'1 0.3
2016-Aug-20 02:11N 22°12' E 113°48'2032.1
2016-Aug-20 01:33N 22°17' E 114°09'0 0.0
2016-Aug-20 00:33N 22°17' E 114°09'0 0.1
2016-Aug-19 23:33N 22°17' E 114°09'0 0.0
2016-Aug-19 22:33N 22°17' E 114°09'0 0.1
2016-Aug-19 21:33N 22°17' E 114°09'0 0.0
2016-Aug-19 20:33N 22°17' E 114°09'0 0.0
2016-Aug-19 19:33N 22°17' E 114°09'0 0.0
2016-Aug-19 18:32N 22°17' E 114°09'0 0.0
2016-Aug-19 17:33N 22°17' E 114°09'0 0.0
2016-Aug-19 16:30N 22°17' E 114°09'0 0.0
2016-Aug-19 15:33N 22°17' E 114°09'0 0.0
2016-Aug-19 14:32N 22°17' E 114°09'0 0.0
2016-Aug-19 13:32N 22°17' E 114°09'0 0.1
2016-Aug-19 12:31N 22°17' E 114°09'0 0.0
2016-Aug-19 11:33N 22°17' E 114°09'0 0.0
2016-Aug-19 10:33N 22°17' E 114°09'0 0.0
2016-Aug-19 09:32N 22°17' E 114°09'0 0.0
2016-Aug-19 08:33N 22°17' E 114°09'0 0.0
2016-Aug-19 07:32N 22°17' E 114°09'0 0.0
2016-Aug-19 06:33N 22°17' E 114°09'0 0.0
2016-Aug-19 05:32N 22°17' E 114°09'0 0.0
2016-Aug-19 04:33N 22°17' E 114°09'0 0.0
2016-Aug-19 03:33N 22°17' E 114°09'0 0.0
2016-Aug-19 02:33N 22°17' E 114°09'0 0.1
2016-Aug-19 01:33N 22°17' E 114°09'0 0.1
2016-Aug-19 00:33N 22°17' E 114°09'0 0.0
2016-Aug-18 23:33N 22°17' E 114°09'0 0.1
2016-Aug-18 22:33N 22°17' E 114°09'0 0.1
2016-Aug-18 21:33N 22°17' E 114°09'0 0.0
2016-Aug-18 20:34N 22°17' E 114°09'0 0.0
2016-Aug-18 19:33N 22°17' E 114°09'0 0.0
2016-Aug-18 18:33N 22°17' E 114°09'  

Dump ship's entire track history